createdAt,value
2024-05-09T00:00:35.998Z,66.38
2024-05-09T00:01:10.217Z,66.49
2024-05-09T00:01:41.072Z,66.04
2024-05-09T00:02:11.963Z,66.69
2024-05-09T00:02:43.140Z,66.50
2024-05-09T00:03:14.086Z,66.38
2024-05-09T00:03:45.782Z,66.34
2024-05-09T00:04:16.638Z,66.27
2024-05-09T00:04:47.542Z,66.33
2024-05-09T00:05:18.433Z,66.28
2024-05-09T00:05:49.325Z,66.43
2024-05-09T00:06:20.165Z,66.11
2024-05-09T00:06:50.965Z,66.27
2024-05-09T00:07:21.759Z,66.28
2024-05-09T00:07:52.612Z,66.46
2024-05-09T00:08:23.622Z,65.96
2024-05-09T00:08:54.482Z,66.12
2024-05-09T00:09:25.272Z,65.95
2024-05-09T00:09:56.070Z,66.00
2024-05-09T00:10:35.054Z,65.73
2024-05-09T00:11:08.866Z,65.62
2024-05-09T00:11:39.759Z,65.88
2024-05-09T00:12:10.742Z,65.99
2024-05-09T00:12:41.616Z,65.96
2024-05-09T00:13:12.393Z,65.97
2024-05-09T00:13:43.284Z,66.01
2024-05-09T00:14:14.145Z,66.23
2024-05-09T00:14:44.946Z,65.95
2024-05-09T00:15:15.728Z,66.20
2024-05-09T00:15:46.510Z,66.20
2024-05-09T00:16:17.304Z,65.92
2024-05-09T00:16:48.662Z,65.81
2024-05-09T00:17:19.592Z,66.30
2024-05-09T00:17:50.613Z,66.60
2024-05-09T00:18:21.791Z,66.31
2024-05-09T00:18:52.754Z,65.95
2024-05-09T00:19:23.689Z,65.38
2024-05-09T00:19:54.550Z,64.99
2024-05-09T00:20:33.224Z,65.12
2024-05-09T00:21:09.610Z,65.03
2024-05-09T00:21:43.852Z,65.19
2024-05-09T00:22:14.667Z,65.05
2024-05-09T00:22:45.468Z,64.87
2024-05-09T00:23:16.392Z,65.08
2024-05-09T00:23:47.240Z,64.58
2024-05-09T00:24:18.039Z,64.60
2024-05-09T00:24:48.871Z,64.17
2024-05-09T00:25:19.665Z,63.86
2024-05-09T00:25:50.511Z,63.87
2024-05-09T00:26:23.008Z,63.84
2024-05-09T00:26:53.922Z,63.95
2024-05-09T00:27:24.742Z,64.07
2024-05-09T00:27:55.550Z,64.21
2024-05-09T00:28:26.337Z,64.07
2024-05-09T00:28:57.211Z,63.94
2024-05-09T00:29:28.142Z,64.01
2024-05-09T00:29:58.998Z,63.53
2024-05-09T00:30:34.212Z,63.56
2024-05-09T00:31:07.210Z,63.47
2024-05-09T00:31:38.017Z,63.42
2024-05-09T00:32:08.940Z,63.66
2024-05-09T00:32:39.902Z,63.98
2024-05-09T00:33:11.740Z,63.82
2024-05-09T00:33:42.940Z,64.29
2024-05-09T00:34:14.040Z,63.84
2024-05-09T00:34:45.182Z,64.18
2024-05-09T00:35:16.174Z,64.20
2024-05-09T00:35:47.037Z,64.56
2024-05-09T00:36:18.092Z,64.54
2024-05-09T00:36:48.913Z,64.79
2024-05-09T00:37:20.831Z,64.86
2024-05-09T00:37:51.762Z,64.53
2024-05-09T00:38:22.687Z,64.66
2024-05-09T00:38:53.540Z,64.34
2024-05-09T00:39:24.370Z,64.69
2024-05-09T00:39:55.159Z,65.01
2024-05-09T00:40:35.703Z,64.45
2024-05-09T00:41:10.692Z,64.20
2024-05-09T00:41:41.640Z,64.25
2024-05-09T00:42:12.479Z,64.72
2024-05-09T00:42:46.013Z,64.33
2024-05-09T00:43:16.869Z,64.62
2024-05-09T00:43:47.744Z,64.26
2024-05-09T00:44:18.576Z,64.66
2024-05-09T00:44:49.480Z,64.14
2024-05-09T00:45:20.274Z,64.44
2024-05-09T00:45:52.588Z,64.17
2024-05-09T00:46:23.378Z,64.50
2024-05-09T00:46:55.143Z,64.28
2024-05-09T00:47:26.115Z,64.62
2024-05-09T00:47:59.089Z,64.59
2024-05-09T00:48:30.664Z,64.50
2024-05-09T00:49:01.886Z,64.58
2024-05-09T00:49:32.963Z,64.60
2024-05-09T00:50:05.503Z,64.67
2024-05-09T00:50:42.623Z,64.13
2024-05-09T00:51:13.723Z,64.23
2024-05-09T00:51:44.681Z,64.03
2024-05-09T00:52:16.261Z,64.65
2024-05-09T00:52:48.219Z,64.53
2024-05-09T00:53:19.310Z,64.33
2024-05-09T00:53:50.184Z,64.52
2024-05-09T00:54:21.699Z,64.45
2024-05-09T00:54:54.748Z,64.18
2024-05-09T00:55:25.736Z,64.17
2024-05-09T00:55:56.668Z,64.43
2024-05-09T00:56:27.940Z,64.39
2024-05-09T00:57:01.037Z,64.03
2024-05-09T00:57:31.881Z,63.89
2024-05-09T00:58:04.611Z,63.78
2024-05-09T00:58:35.683Z,63.64
2024-05-09T00:59:07.079Z,63.42
2024-05-09T00:59:38.225Z,63.72
2024-05-09T01:00:18.457Z,63.41
2024-05-09T01:00:59.421Z,63.59
2024-05-09T01:01:30.783Z,63.75
2024-05-09T01:02:01.810Z,63.22
2024-05-09T01:02:32.818Z,63.40
2024-05-09T01:03:04.231Z,63.24
2024-05-09T01:03:35.403Z,63.11
2024-05-09T01:04:07.027Z,62.92
2024-05-09T01:04:37.965Z,62.67
2024-05-09T01:05:08.961Z,62.49
2024-05-09T01:05:40.441Z,61.71
2024-05-09T01:06:11.617Z,62.19
2024-05-09T01:06:42.515Z,61.62
2024-05-09T01:07:13.389Z,61.49
2024-05-09T01:07:44.259Z,61.47
2024-05-09T01:08:15.187Z,61.49
2024-05-09T01:08:46.560Z,61.25
2024-05-09T01:09:17.386Z,61.04
2024-05-09T01:09:48.180Z,61.27
2024-05-09T01:10:27.555Z,60.88
2024-05-09T01:11:03.082Z,60.50
2024-05-09T01:11:38.007Z,60.30
2024-05-09T01:12:09.099Z,60.47
2024-05-09T01:12:40.251Z,60.20
2024-05-09T01:13:11.440Z,60.34
2024-05-09T01:13:43.785Z,60.05
2024-05-09T01:14:14.744Z,59.85
2024-05-09T01:14:45.610Z,59.90
2024-05-09T01:15:16.519Z,59.96
2024-05-09T01:15:48.983Z,59.94
2024-05-09T01:16:19.888Z,59.85
2024-05-09T01:16:50.699Z,59.69
2024-05-09T01:17:21.721Z,59.36
2024-05-09T01:17:54.295Z,59.55
2024-05-09T01:18:26.605Z,59.56
2024-05-09T01:18:58.091Z,59.39
2024-05-09T01:19:29.759Z,59.38
2024-05-09T01:20:00.712Z,59.43
2024-05-09T01:20:39.934Z,58.89
2024-05-09T01:21:14.278Z,58.77
2024-05-09T01:21:45.176Z,58.34
2024-05-09T01:22:15.965Z,58.19
2024-05-09T01:22:46.908Z,58.50
2024-05-09T01:23:17.723Z,58.79
2024-05-09T01:23:48.531Z,58.52
2024-05-09T01:24:19.388Z,58.37
2024-05-09T01:24:50.927Z,58.23
2024-05-09T01:25:21.755Z,57.93
2024-05-09T01:25:52.572Z,58.11
2024-05-09T01:26:23.431Z,58.19
2024-05-09T01:26:54.280Z,58.45
2024-05-09T01:27:25.078Z,58.32
2024-05-09T01:27:55.923Z,58.39
2024-05-09T01:28:26.720Z,58.58
2024-05-09T01:28:57.581Z,58.85
2024-05-09T01:29:28.512Z,58.87
2024-05-09T01:29:59.626Z,59.09
2024-05-09T01:30:34.564Z,58.77
2024-05-09T01:31:07.680Z,58.76
2024-05-09T01:31:38.485Z,58.99
2024-05-09T01:32:09.402Z,59.38
2024-05-09T01:32:40.470Z,58.86
2024-05-09T01:33:12.532Z,59.39
2024-05-09T01:33:44.216Z,59.00
2024-05-09T01:34:15.230Z,59.05
2024-05-09T01:34:46.116Z,58.86
2024-05-09T01:35:22.272Z,59.04
2024-05-09T01:35:53.172Z,58.88
2024-05-09T01:36:24.007Z,58.70
2024-05-09T01:36:54.923Z,58.29
2024-05-09T01:37:25.747Z,58.54
2024-05-09T01:37:56.591Z,58.52
2024-05-09T01:38:27.423Z,58.39
2024-05-09T01:38:58.207Z,58.95
2024-05-09T01:39:28.990Z,58.37
2024-05-09T01:39:59.777Z,57.96
2024-05-09T01:41:03.761Z,57.65
2024-05-09T01:41:37.565Z,57.55
2024-05-09T01:42:08.403Z,57.62
2024-05-09T01:42:39.215Z,57.04
2024-05-09T01:43:11.249Z,56.87
2024-05-09T01:43:42.904Z,57.16
2024-05-09T01:44:13.878Z,57.13
2024-05-09T01:44:45.742Z,57.12
2024-05-09T01:45:17.386Z,57.17
2024-05-09T01:45:48.235Z,57.37
2024-05-09T01:46:19.067Z,57.44
2024-05-09T01:46:49.951Z,57.96
2024-05-09T01:47:20.939Z,57.81
2024-05-09T01:47:52.076Z,57.87
2024-05-09T01:48:23.176Z,58.33
2024-05-09T01:48:54.131Z,59.19
2024-05-09T01:49:25.193Z,59.00
2024-05-09T01:49:56.139Z,58.66
2024-05-09T01:50:36.552Z,59.38
2024-05-09T01:51:11.483Z,59.52
2024-05-09T01:51:42.362Z,59.64
2024-05-09T01:52:13.243Z,59.71
2024-05-09T01:52:44.075Z,59.42
2024-05-09T01:53:15.449Z,59.18
2024-05-09T01:53:46.626Z,59.36
2024-05-09T01:54:17.415Z,59.35
2024-05-09T01:54:48.209Z,59.04
2024-05-09T01:55:18.996Z,58.83
2024-05-09T01:55:49.817Z,58.65
2024-05-09T01:56:20.709Z,58.13
2024-05-09T01:56:51.512Z,58.22
2024-05-09T01:57:22.357Z,58.02
2024-05-09T01:57:53.158Z,58.00
2024-05-09T01:58:24.138Z,57.79
2024-05-09T01:58:55.025Z,57.61
2024-05-09T01:59:25.997Z,57.25
2024-05-09T01:59:56.836Z,57.08
2024-05-09T02:00:36.144Z,57.04
2024-05-09T02:01:10.615Z,57.05
2024-05-09T02:01:56.138Z,57.31
2024-05-09T02:02:28.550Z,57.09
2024-05-09T02:02:59.607Z,56.95
2024-05-09T02:03:30.641Z,56.79
2024-05-09T02:04:01.885Z,57.13
2024-05-09T02:04:33.088Z,56.64
2024-05-09T02:05:04.481Z,56.72
2024-05-09T02:05:35.412Z,56.62
2024-05-09T02:06:06.573Z,56.42
2024-05-09T02:06:40.910Z,56.36
2024-05-09T02:07:11.802Z,56.45
2024-05-09T02:07:42.651Z,56.35
2024-05-09T02:08:14.924Z,56.11
2024-05-09T02:08:45.864Z,56.00
2024-05-09T02:09:16.726Z,56.15
2024-05-09T02:09:50.769Z,56.25
2024-05-09T02:10:26.499Z,56.38
2024-05-09T02:11:03.274Z,55.80
2024-05-09T02:11:42.734Z,55.52
2024-05-09T02:12:13.827Z,55.27
2024-05-09T02:12:44.731Z,55.21
2024-05-09T02:13:16.078Z,54.92
2024-05-09T02:13:47.192Z,54.67
2024-05-09T02:14:19.241Z,55.00
2024-05-09T02:14:50.872Z,54.85
2024-05-09T02:15:21.657Z,55.20
2024-05-09T02:15:52.615Z,55.03
2024-05-09T02:16:23.453Z,55.16
2024-05-09T02:16:54.323Z,55.21
2024-05-09T02:17:25.308Z,55.82
2024-05-09T02:17:56.365Z,55.94
2024-05-09T02:18:27.458Z,56.00
2024-05-09T02:18:58.533Z,56.23
2024-05-09T02:19:29.484Z,56.15
2024-05-09T02:20:00.393Z,56.29
2024-05-09T02:20:36.010Z,56.38
2024-05-09T02:21:08.152Z,56.27
2024-05-09T02:21:39.347Z,56.33
2024-05-09T02:22:10.177Z,56.28
2024-05-09T02:22:40.992Z,56.22
2024-05-09T02:23:12.913Z,56.65
2024-05-09T02:23:43.953Z,56.37
2024-05-09T02:24:14.785Z,56.59
2024-05-09T02:24:45.586Z,56.64
2024-05-09T02:25:16.512Z,56.73
2024-05-09T02:25:47.322Z,56.23
2024-05-09T02:26:18.179Z,56.64
2024-05-09T02:26:48.993Z,56.76
2024-05-09T02:27:19.789Z,57.06
2024-05-09T02:27:50.595Z,56.59
2024-05-09T02:28:21.382Z,57.14
2024-05-09T02:28:52.620Z,57.08
2024-05-09T02:29:23.433Z,57.16
2024-05-09T02:29:54.237Z,56.93
2024-05-09T02:30:35.079Z,57.38
2024-05-09T02:31:13.184Z,57.35
2024-05-09T02:31:44.258Z,57.08
2024-05-09T02:32:15.246Z,57.31
2024-05-09T02:32:46.453Z,56.78
2024-05-09T02:33:17.500Z,56.57
2024-05-09T02:33:48.653Z,56.16
2024-05-09T02:34:19.900Z,56.45
2024-05-09T02:34:50.770Z,56.15
2024-05-09T02:35:21.680Z,55.94
2024-05-09T02:35:52.538Z,55.45
2024-05-09T02:36:23.559Z,55.37
2024-05-09T02:36:55.066Z,55.26
2024-05-09T02:37:25.872Z,56.03
2024-05-09T02:37:56.999Z,55.48
2024-05-09T02:38:27.834Z,55.68
2024-05-09T02:38:58.654Z,55.44
2024-05-09T02:39:29.444Z,54.82
2024-05-09T02:40:00.235Z,55.35
2024-05-09T02:40:37.414Z,55.18
2024-05-09T02:41:10.039Z,55.55
2024-05-09T02:41:40.878Z,55.47
2024-05-09T02:42:11.676Z,55.55
2024-05-09T02:42:42.478Z,54.94
2024-05-09T02:43:13.443Z,54.63
2024-05-09T02:43:44.280Z,54.61
2024-05-09T02:44:15.149Z,54.90
2024-05-09T02:44:46.060Z,54.15
2024-05-09T02:45:16.848Z,53.99
2024-05-09T02:45:47.636Z,54.40
2024-05-09T02:46:18.457Z,54.61
2024-05-09T02:46:49.318Z,54.03
2024-05-09T02:47:20.342Z,54.91
2024-05-09T02:47:51.362Z,54.36
2024-05-09T02:48:22.622Z,54.55
2024-05-09T02:48:53.654Z,54.51
2024-05-09T02:49:24.728Z,54.23
2024-05-09T02:49:55.633Z,54.37
2024-05-09T02:50:34.196Z,54.53
2024-05-09T02:51:09.489Z,54.76
2024-05-09T02:51:40.379Z,54.57
2024-05-09T02:52:11.164Z,54.86
2024-05-09T02:52:41.970Z,54.52
2024-05-09T02:53:13.317Z,54.25
2024-05-09T02:53:44.354Z,53.86
2024-05-09T02:54:15.220Z,53.74
2024-05-09T02:54:46.007Z,53.39
2024-05-09T02:55:16.796Z,52.93
2024-05-09T02:55:47.645Z,53.46
2024-05-09T02:56:18.495Z,53.00
2024-05-09T02:56:49.289Z,53.57
2024-05-09T02:57:20.087Z,53.25
2024-05-09T02:57:50.890Z,53.24
2024-05-09T02:58:21.672Z,53.93
2024-05-09T02:58:52.568Z,53.67
2024-05-09T02:59:23.477Z,53.42
2024-05-09T02:59:54.368Z,53.71
2024-05-09T03:00:34.440Z,53.71
2024-05-09T03:01:09.765Z,53.73
2024-05-09T03:01:40.700Z,53.29
2024-05-09T03:02:12.610Z,53.89
2024-05-09T03:02:43.630Z,53.21
2024-05-09T03:03:15.748Z,53.49
2024-05-09T03:03:49.230Z,53.67
2024-05-09T03:04:20.209Z,53.49
2024-05-09T03:04:51.146Z,52.66
2024-05-09T03:05:22.145Z,53.16
2024-05-09T03:05:53.034Z,52.66
2024-05-09T03:06:23.835Z,52.67
2024-05-09T03:06:54.618Z,51.88
2024-05-09T03:07:25.421Z,51.20
2024-05-09T03:07:56.270Z,51.08
2024-05-09T03:08:27.134Z,50.78
2024-05-09T03:08:57.992Z,50.20
2024-05-09T03:09:28.796Z,50.03
2024-05-09T03:09:59.593Z,49.38
2024-05-09T03:10:35.691Z,49.71
2024-05-09T03:11:08.753Z,49.01
2024-05-09T03:11:39.704Z,49.49
2024-05-09T03:12:10.735Z,49.16
2024-05-09T03:12:41.639Z,48.95
2024-05-09T03:13:14.889Z,49.09
2024-05-09T03:13:46.805Z,48.93
2024-05-09T03:14:18.450Z,48.22
2024-05-09T03:14:49.717Z,48.55
2024-05-09T03:15:23.138Z,48.67
2024-05-09T03:15:53.934Z,47.94
2024-05-09T03:16:24.712Z,48.02
2024-05-09T03:16:55.575Z,48.13
2024-05-09T03:17:26.563Z,47.92
2024-05-09T03:17:58.971Z,47.79
2024-05-09T03:18:30.055Z,48.13
2024-05-09T03:19:01.012Z,47.83
2024-05-09T03:19:34.314Z,47.31
2024-05-09T03:20:11.513Z,47.91
2024-05-09T03:20:45.536Z,47.36
2024-05-09T03:21:16.428Z,47.21
2024-05-09T03:21:47.272Z,47.60
2024-05-09T03:22:18.073Z,46.88
2024-05-09T03:22:49.008Z,47.09
2024-05-09T03:23:19.897Z,46.65
2024-05-09T03:23:50.782Z,46.85
2024-05-09T03:24:21.584Z,47.18
2024-05-09T03:24:52.448Z,47.11
2024-05-09T03:25:23.241Z,46.98
2024-05-09T03:25:54.221Z,47.02
2024-05-09T03:26:25.158Z,46.62
2024-05-09T03:26:56.090Z,46.40
2024-05-09T03:27:26.879Z,46.63
2024-05-09T03:27:58.075Z,45.77
2024-05-09T03:28:28.859Z,45.88
2024-05-09T03:28:59.729Z,45.36
2024-05-09T03:29:30.696Z,45.78
2024-05-09T03:30:01.594Z,45.78
2024-05-09T03:30:39.781Z,45.63
2024-05-09T03:31:13.286Z,44.94
2024-05-09T03:31:44.300Z,45.23
2024-05-09T03:32:15.218Z,45.27
2024-05-09T03:32:46.283Z,45.29
2024-05-09T03:33:18.651Z,44.95
2024-05-09T03:33:50.952Z,44.98
2024-05-09T03:34:21.814Z,44.85
2024-05-09T03:34:52.645Z,44.81
2024-05-09T03:35:23.793Z,44.60
2024-05-09T03:35:54.743Z,44.97
2024-05-09T03:36:26.112Z,44.39
2024-05-09T03:36:56.896Z,44.52
2024-05-09T03:37:27.702Z,44.55
2024-05-09T03:37:58.550Z,44.33
2024-05-09T03:38:29.664Z,44.57
2024-05-09T03:39:00.566Z,44.12
2024-05-09T03:39:31.988Z,44.19
2024-05-09T03:40:03.092Z,44.16
2024-05-09T03:40:33.909Z,44.50
2024-05-09T03:41:04.780Z,44.21
2024-05-09T03:41:35.859Z,44.24
2024-05-09T03:42:07.034Z,44.48
2024-05-09T03:42:40.529Z,44.53
2024-05-09T03:43:12.148Z,44.77
2024-05-09T03:43:43.143Z,44.27
2024-05-09T03:44:13.984Z,44.44
2024-05-09T03:44:44.812Z,44.36
2024-05-09T03:45:15.815Z,44.20
2024-05-09T03:45:47.950Z,44.55
2024-05-09T03:46:18.747Z,43.70
2024-05-09T03:46:49.823Z,43.70
2024-05-09T03:47:20.792Z,44.03
2024-05-09T03:47:52.094Z,44.54
2024-05-09T03:48:23.532Z,43.99
2024-05-09T03:48:54.751Z,44.60
2024-05-09T03:49:25.904Z,44.34
2024-05-09T03:49:56.896Z,44.65
2024-05-09T03:50:33.713Z,43.79
2024-05-09T03:51:06.663Z,43.79
2024-05-09T03:51:37.507Z,44.04
2024-05-09T03:52:08.295Z,43.68
2024-05-09T03:52:39.092Z,44.25
2024-05-09T03:53:11.430Z,44.52
2024-05-09T03:53:42.455Z,43.75
2024-05-09T03:54:13.351Z,43.69
2024-05-09T03:54:47.891Z,44.54
2024-05-09T03:55:18.801Z,44.22
2024-05-09T03:55:49.656Z,44.00
2024-05-09T03:56:20.522Z,44.74
2024-05-09T03:56:51.426Z,44.86
2024-05-09T03:57:22.221Z,43.89
2024-05-09T03:57:53.039Z,44.18
2024-05-09T03:58:23.856Z,44.15
2024-05-09T03:58:55.048Z,44.40
2024-05-09T03:59:26.030Z,44.48
2024-05-09T03:59:56.864Z,44.39
2024-05-09T04:00:35.241Z,44.38
2024-05-09T04:01:10.631Z,44.66
2024-05-09T04:01:41.562Z,44.40
2024-05-09T04:02:12.605Z,44.85
2024-05-09T04:02:46.689Z,44.54
2024-05-09T04:03:18.022Z,44.70
2024-05-09T04:03:49.266Z,44.34
2024-05-09T04:04:20.180Z,44.30
2024-05-09T04:04:51.235Z,43.98
2024-05-09T04:05:22.439Z,44.02
2024-05-09T04:05:53.283Z,44.74
2024-05-09T04:06:25.541Z,44.09
2024-05-09T04:06:56.324Z,44.63
2024-05-09T04:07:27.179Z,44.79
2024-05-09T04:07:58.060Z,45.04
2024-05-09T04:08:29.025Z,44.47
2024-05-09T04:08:59.843Z,44.67
2024-05-09T04:09:30.641Z,44.76
2024-05-09T04:10:01.430Z,45.51
2024-05-09T04:10:34.135Z,45.19
2024-05-09T04:11:06.062Z,45.56
2024-05-09T04:11:37.124Z,45.43
2024-05-09T04:12:08.011Z,45.51
2024-05-09T04:12:38.911Z,45.18
2024-05-09T04:13:09.868Z,45.38
2024-05-09T04:13:40.728Z,45.81
2024-05-09T04:14:11.523Z,46.15
2024-05-09T04:14:42.394Z,45.70
2024-05-09T04:15:14.011Z,45.48
2024-05-09T04:15:44.808Z,46.10
2024-05-09T04:16:15.640Z,46.31
2024-05-09T04:16:46.470Z,45.79
2024-05-09T04:17:17.365Z,45.75
2024-05-09T04:17:50.304Z,45.90
2024-05-09T04:18:21.483Z,46.53
2024-05-09T04:18:52.442Z,46.19
2024-05-09T04:19:23.402Z,45.86
2024-05-09T04:19:54.729Z,46.28
2024-05-09T04:20:35.972Z,46.51
2024-05-09T04:21:10.378Z,46.47
2024-05-09T04:21:41.275Z,45.85
2024-05-09T04:22:12.150Z,46.17
2024-05-09T04:22:42.965Z,46.33
2024-05-09T04:23:14.498Z,46.22
2024-05-09T04:23:45.650Z,46.19
2024-05-09T04:24:16.470Z,46.30
2024-05-09T04:24:47.573Z,46.20
2024-05-09T04:25:18.374Z,46.20
2024-05-09T04:25:49.266Z,45.57
2024-05-09T04:26:20.129Z,46.09
2024-05-09T04:26:50.957Z,45.98
2024-05-09T04:27:21.814Z,45.76
2024-05-09T04:27:54.677Z,45.59
2024-05-09T04:28:25.540Z,45.86
2024-05-09T04:28:56.349Z,45.82
2024-05-09T04:29:27.268Z,45.52
2024-05-09T04:29:58.141Z,46.03
2024-05-09T04:30:36.646Z,45.71
2024-05-09T04:31:10.488Z,45.65
2024-05-09T04:31:41.290Z,45.80
2024-05-09T04:32:12.311Z,45.42
2024-05-09T04:32:43.275Z,45.72
2024-05-09T04:33:15.035Z,45.43
2024-05-09T04:33:46.622Z,45.45
2024-05-09T04:34:17.997Z,45.55
2024-05-09T04:34:48.848Z,44.96
2024-05-09T04:35:21.347Z,44.99
2024-05-09T04:35:52.258Z,45.23
2024-05-09T04:36:23.298Z,45.34
2024-05-09T04:36:54.141Z,44.73
2024-05-09T04:37:25.264Z,45.40
2024-05-09T04:37:56.114Z,45.54
2024-05-09T04:38:28.889Z,45.35
2024-05-09T04:38:59.740Z,44.87
2024-05-09T04:39:30.537Z,44.81
2024-05-09T04:40:01.333Z,44.52
2024-05-09T04:40:35.389Z,45.12
2024-05-09T04:41:07.859Z,44.52
2024-05-09T04:41:38.837Z,44.45
2024-05-09T04:42:09.693Z,45.07
2024-05-09T04:42:40.639Z,44.84
2024-05-09T04:43:16.234Z,44.76
2024-05-09T04:43:49.702Z,44.78
2024-05-09T04:44:20.595Z,44.77
2024-05-09T04:44:52.985Z,44.79
2024-05-09T04:45:24.882Z,44.58
2024-05-09T04:45:55.679Z,44.40
2024-05-09T04:46:26.467Z,44.27
2024-05-09T04:46:57.294Z,44.34
2024-05-09T04:47:28.398Z,43.93
2024-05-09T04:47:59.982Z,43.85
2024-05-09T04:48:33.903Z,43.82
2024-05-09T04:49:04.934Z,44.06
2024-05-09T04:49:36.005Z,44.25
2024-05-09T04:50:11.385Z,44.49
2024-05-09T04:50:42.686Z,44.30
2024-05-09T04:51:13.676Z,44.26
2024-05-09T04:51:44.503Z,44.46
2024-05-09T04:52:15.294Z,44.16
2024-05-09T04:52:46.205Z,43.98
2024-05-09T04:53:17.394Z,44.12
2024-05-09T04:53:48.451Z,43.68
2024-05-09T04:54:29.978Z,43.69
2024-05-09T04:55:06.752Z,44.02
2024-05-09T04:55:38.087Z,43.28
2024-05-09T04:56:08.984Z,43.26
2024-05-09T04:56:39.802Z,42.93
2024-05-09T04:57:10.603Z,42.93
2024-05-09T04:57:41.474Z,43.09
2024-05-09T04:58:12.447Z,43.31
2024-05-09T04:58:43.309Z,42.53
2024-05-09T04:59:14.246Z,43.29
2024-05-09T04:59:45.081Z,42.82
2024-05-09T05:00:21.852Z,42.49
2024-05-09T05:00:59.529Z,42.64
2024-05-09T05:01:30.460Z,41.93
2024-05-09T05:02:01.389Z,41.91
2024-05-09T05:02:32.370Z,42.43
2024-05-09T05:03:05.113Z,42.29
2024-05-09T05:03:36.185Z,42.34
2024-05-09T05:04:07.199Z,42.24
2024-05-09T05:04:38.222Z,42.36
2024-05-09T05:05:09.388Z,42.13
2024-05-09T05:05:40.712Z,42.16
2024-05-09T05:06:11.930Z,41.81
2024-05-09T05:06:42.737Z,41.80
2024-05-09T05:07:13.533Z,41.45
2024-05-09T05:07:44.377Z,41.53
2024-05-09T05:08:17.500Z,40.85
2024-05-09T05:08:49.324Z,41.35
2024-05-09T05:09:20.163Z,41.56
2024-05-09T05:09:52.050Z,41.38
2024-05-09T05:10:32.906Z,41.26
2024-05-09T05:11:06.483Z,40.72
2024-05-09T05:11:37.389Z,41.32
2024-05-09T05:12:28.334Z,41.19
2024-05-09T05:13:18.992Z,40.95
2024-05-09T05:13:50.579Z,41.15
2024-05-09T05:14:21.393Z,40.97
2024-05-09T05:14:52.326Z,40.91
2024-05-09T05:15:23.125Z,40.36
2024-05-09T05:15:57.862Z,41.10
2024-05-09T05:16:29.218Z,40.62
2024-05-09T05:17:00.044Z,40.39
2024-05-09T05:17:31.079Z,40.53
2024-05-09T05:18:02.181Z,40.60
2024-05-09T05:18:33.173Z,40.58
2024-05-09T05:19:05.855Z,40.23
2024-05-09T05:19:38.142Z,40.47
2024-05-09T05:20:14.936Z,40.14
2024-05-09T05:20:46.218Z,40.19
2024-05-09T05:21:17.214Z,40.32
2024-05-09T05:21:48.035Z,40.36
2024-05-09T05:22:18.842Z,40.16
2024-05-09T05:22:49.744Z,40.00
2024-05-09T05:23:21.783Z,40.11
2024-05-09T05:23:52.684Z,40.10
2024-05-09T05:24:23.487Z,39.58
2024-05-09T05:24:54.277Z,39.65
2024-05-09T05:25:25.122Z,39.53
2024-05-09T05:25:56.164Z,39.70
2024-05-09T05:26:27.067Z,39.96
2024-05-09T05:26:57.883Z,39.85
2024-05-09T05:27:29.812Z,39.89
2024-05-09T05:28:00.661Z,39.80
2024-05-09T05:28:31.445Z,39.86
2024-05-09T05:29:02.258Z,39.54
2024-05-09T05:29:33.100Z,39.04
2024-05-09T05:30:07.377Z,39.51
2024-05-09T05:30:40.527Z,39.50
2024-05-09T05:31:11.555Z,39.81
2024-05-09T05:31:42.414Z,39.46
2024-05-09T05:32:13.472Z,39.43
2024-05-09T05:32:44.540Z,39.36
2024-05-09T05:33:19.468Z,39.16
2024-05-09T05:33:50.735Z,39.09
2024-05-09T05:34:21.598Z,39.32
2024-05-09T05:34:52.444Z,39.53
2024-05-09T05:35:23.407Z,39.47
2024-05-09T05:35:54.747Z,39.66
2024-05-09T05:36:25.533Z,39.25
2024-05-09T05:36:56.339Z,39.53
2024-05-09T05:37:27.123Z,39.38
2024-05-09T05:37:57.931Z,39.60
2024-05-09T05:38:28.935Z,39.08
2024-05-09T05:38:59.742Z,39.46
2024-05-09T05:39:30.554Z,39.22
2024-05-09T05:40:01.345Z,39.37
2024-05-09T05:40:36.583Z,39.18
2024-05-09T05:41:09.242Z,39.50
2024-05-09T05:41:40.106Z,39.59
2024-05-09T05:42:10.950Z,39.71
2024-05-09T05:42:42.074Z,40.30
2024-05-09T05:43:16.963Z,39.52
2024-05-09T05:43:47.914Z,39.57
2024-05-09T05:44:18.800Z,39.48
2024-05-09T05:44:49.600Z,39.70
2024-05-09T05:45:20.468Z,39.94
2024-05-09T05:45:51.247Z,39.70
2024-05-09T05:46:22.128Z,40.09
2024-05-09T05:46:52.977Z,39.71
2024-05-09T05:47:23.973Z,39.72
2024-05-09T05:47:55.245Z,39.65
2024-05-09T05:48:26.412Z,39.85
2024-05-09T05:48:57.321Z,39.68
2024-05-09T05:49:28.281Z,39.75
2024-05-09T05:49:59.204Z,39.96
2024-05-09T05:50:35.548Z,39.61
2024-05-09T05:51:08.433Z,39.81
2024-05-09T05:51:39.297Z,39.53
2024-05-09T05:52:11.198Z,39.12
2024-05-09T05:52:42.357Z,39.41
2024-05-09T05:53:13.299Z,39.16
2024-05-09T05:53:44.327Z,38.94
2024-05-09T05:54:15.184Z,39.12
2024-05-09T05:54:50.584Z,38.73
2024-05-09T05:55:21.429Z,39.23
2024-05-09T05:55:52.392Z,39.51
2024-05-09T05:56:23.295Z,39.68
2024-05-09T05:56:54.098Z,39.68
2024-05-09T05:57:24.893Z,39.54
2024-05-09T05:57:55.675Z,39.76
2024-05-09T05:58:26.466Z,39.84
2024-05-09T05:58:57.319Z,39.89
2024-05-09T05:59:28.254Z,39.80
2024-05-09T05:59:59.158Z,39.52
2024-05-09T06:00:37.603Z,39.20
2024-05-09T06:01:10.486Z,39.07
2024-05-09T06:01:41.302Z,38.90
2024-05-09T06:02:14.914Z,38.92
2024-05-09T06:02:45.883Z,38.94
2024-05-09T06:03:16.765Z,38.74
2024-05-09T06:03:47.815Z,38.45
2024-05-09T06:04:18.675Z,38.01
2024-05-09T06:04:49.610Z,38.48
2024-05-09T06:05:20.630Z,38.14
2024-05-09T06:05:51.557Z,37.64
2024-05-09T06:06:22.424Z,38.06
2024-05-09T06:06:53.233Z,38.24
2024-05-09T06:07:24.041Z,38.39
2024-05-09T06:07:54.857Z,37.98
2024-05-09T06:08:28.029Z,37.94
2024-05-09T06:09:00.775Z,38.02
2024-05-09T06:09:31.578Z,38.15
2024-05-09T06:10:03.910Z,38.06
2024-05-09T06:10:39.280Z,37.74
2024-05-09T06:11:11.776Z,38.00
2024-05-09T06:11:42.788Z,37.89
2024-05-09T06:12:13.916Z,37.40
2024-05-09T06:12:44.746Z,37.55
2024-05-09T06:13:15.600Z,37.65
2024-05-09T06:13:46.507Z,37.86
2024-05-09T06:14:17.446Z,37.81
2024-05-09T06:14:48.278Z,37.54
2024-05-09T06:15:19.078Z,37.69
2024-05-09T06:15:49.871Z,37.67
2024-05-09T06:16:20.784Z,37.48
2024-05-09T06:16:52.160Z,37.50
2024-05-09T06:17:23.893Z,37.39
2024-05-09T06:17:55.034Z,37.57
2024-05-09T06:18:26.579Z,37.81
2024-05-09T06:18:57.635Z,37.63
2024-05-09T06:19:28.717Z,37.41
2024-05-09T06:19:59.654Z,37.45
2024-05-09T06:20:35.376Z,37.57
2024-05-09T06:21:08.473Z,37.70
2024-05-09T06:21:39.328Z,37.58
2024-05-09T06:22:10.240Z,37.58
2024-05-09T06:22:41.033Z,37.70
2024-05-09T06:23:13.381Z,37.63
2024-05-09T06:23:48.201Z,38.32
2024-05-09T06:24:19.017Z,37.85
2024-05-09T06:24:49.815Z,38.17
2024-05-09T06:25:20.642Z,37.75
2024-05-09T06:25:51.578Z,38.02
2024-05-09T06:26:22.507Z,37.89
2024-05-09T06:26:53.365Z,37.89
2024-05-09T06:27:24.157Z,37.87
2024-05-09T06:27:54.954Z,37.92
2024-05-09T06:28:25.775Z,37.81
2024-05-09T06:28:56.804Z,37.97
2024-05-09T06:29:27.727Z,37.71
2024-05-09T06:29:58.633Z,38.04
2024-05-09T06:30:38.275Z,38.20
2024-05-09T06:31:11.627Z,38.39
2024-05-09T06:31:42.784Z,38.05
2024-05-09T06:32:14.420Z,38.19
2024-05-09T06:32:45.427Z,38.48
2024-05-09T06:33:16.925Z,37.99
2024-05-09T06:33:48.087Z,37.92
2024-05-09T06:34:19.162Z,38.28
2024-05-09T06:34:50.183Z,38.20
2024-05-09T06:35:21.186Z,38.38
2024-05-09T06:35:56.122Z,38.18
2024-05-09T06:36:27.002Z,38.21
2024-05-09T06:36:57.786Z,38.38
2024-05-09T06:37:28.595Z,38.42
2024-05-09T06:37:59.492Z,38.21
2024-05-09T06:38:31.649Z,38.01
2024-05-09T06:39:02.587Z,38.27
2024-05-09T06:39:33.419Z,38.42
2024-05-09T06:40:07.175Z,38.61
2024-05-09T06:40:40.415Z,38.07
2024-05-09T06:41:12.977Z,37.94
2024-05-09T06:41:43.942Z,38.29
2024-05-09T06:42:14.802Z,38.08
2024-05-09T06:42:45.598Z,38.25
2024-05-09T06:43:18.536Z,38.16
2024-05-09T06:43:50.560Z,37.88
2024-05-09T06:44:21.836Z,37.89
2024-05-09T06:44:52.640Z,38.39
2024-05-09T06:45:23.453Z,38.39
2024-05-09T06:45:54.244Z,37.74
2024-05-09T06:46:25.574Z,38.12
2024-05-09T06:46:59.529Z,37.81
2024-05-09T06:47:30.957Z,37.85
2024-05-09T06:48:02.014Z,37.54
2024-05-09T06:48:33.164Z,37.96
2024-05-09T06:49:07.253Z,37.84
2024-05-09T06:49:40.118Z,37.10